Latest Coastal Weather Observations for Gove Airport

IDD60701

Issued at 8:01 pm CST Sunday 2 August 2015 (issued every 10 minutes, with the page automatically refreshed every 10 minutes)

About coastal observations | Map of coastal stations | Coastal observations for NT | Marine services | Other Formats
Station Details ID: 014508 Name: GOVE AIRPORT Lat: -12.27 Lon: 136.82 Height: 51.6 m
Data from the previous 72 hours. | See also: Recent months at Gove Airport
Date/Time
CST
Temp

°C
Wind Pressure Rain
since 9am
mm
Weather Cloud Vis
km
Sea
Height
m
Swell
Dir
 
Speed
knots
Gust
knots
hPa Trend Height
m
Period
s
Dir
02/08:00pm 23.1 E 7 9 1016.1 - 1.4 - Partly cloudy 10 - - - -
02/07:30pm 23.0 ESE 7 9 1015.7 - 1.4 - - 10 - - - -
02/07:00pm 23.1 SE 6 10 1015.4 - 1.4 - - 10 - - - -
02/06:30pm 23.7 ESE 7 8 1015.2 - 1.4 - Partly cloudy 10 - - - -
02/06:00pm 24.6 SE 9 13 1014.9 - 1.4 - Cloudy 10 - - - -
02/05:30pm 25.3 ESE 13 16 1014.8 - 1.4 - Partly cloudy 10 - - - -
02/05:00pm 25.9 ESE 11 15 1014.6 - 1.4 - Mostly clear 10 - - - -
02/04:30pm 26.2 ESE 14 18 1014.5 - 1.4 - Partly cloudy 10 - - - -
02/04:00pm 26.4 E 14 17 1014.3 - 1.4 - Partly cloudy 10 - - - -
02/03:30pm 25.0 ESE 10 13 1014.5 - 1.4 - Mostly clear 10 - - - -
02/03:00pm 24.2 ESE 12 17 1014.4 R 1.4 Showers Mostly cloudy 24 - - - -
02/02:49pm 26.0 SE 12 17 1014.6 - 0.4 Showers Partly cloudy 4 - - - -
02/02:30pm 27.1 ESE 12 18 1014.8 - 0.4 - Partly cloudy 10 - - - -
02/02:00pm 27.1 SE 11 15 1015.2 - 0.4 - Mostly clear 10 - - - -
02/01:30pm 27.3 SE 14 20 1015.6 - 0.4 - Mostly clear 10 - - - -
02/01:00pm 27.2 E 13 21 1015.9 - 0.4 - Mostly clear 10 - - - -
02/12:30pm 26.0 ESE 15 22 1016.2 - 0.4 - Mostly clear 10 - - - -
02/12:00pm 26.3 SE 10 17 1016.2 F 0.0 Distant precip. Mostly cloudy 24 - - - -
02/11:30am 26.9 ESE 14 19 1016.8 - 0.0 - Mostly clear 10 - - - -
02/11:00am 26.9 ESE 13 19 1017.0 - 0.0 - Partly cloudy 10 - - - -
02/10:30am 25.9 SE 12 16 1017.4 - 0.0 - Mostly clear 10 - - - -
02/10:00am 24.7 ESE 11 14 1017.7 - 0.0 - Mostly clear 10 - - - -
02/09:30am 24.3 ESE 11 15 1017.5 - 0.0 - Mostly clear 10 - - - -
02/09:00am 23.6 E 9 15 1017.4 R 1.0 Recent precip. Mostly cloudy 23 - - - -
02/08:30am 22.8 ESE 9 11 1017.4 - 1.0 Showers Mostly clear 10 - - - -
02/08:18am 23.2 ESE 7 11 1017.2 - 0.4 Showers Mostly clear 3 - - - -
02/07:30am 22.2 SSE 6 8 1016.6 - 0.4 - Mostly clear 10 - - - -
02/07:00am 21.1 ESE 5 6 1016.3 - 0.2 - Mostly clear 10 - - - -
02/06:30am 21.0 SE 5 6 1016.0 - 0.2 - Partly cloudy 10 - - - -
02/06:00am 20.5 SSE 5 6 1015.5 - 0.2 - - 10 - - - -
02/05:30am 20.4 N 3 4 1015.3 - 0.2 - Partly cloudy 10 - - - -
02/05:00am 20.6 SE 4 6 1015.2 - 0.2 - - 10 - - - -
02/04:30am 20.3 NNE 4 6 1015.2 - 0.2 - - 10 - - - -
02/04:00am 20.4 N 5 6 1015.2 - 0.2 - - 10 - - - -
02/03:30am 20.4 SSE 5 6 1015.1 - 0.2 - Partly cloudy 10 - - - -
02/03:00am 20.9 SE 4 5 1014.9 - 0.2 - Mostly clear 10 - - - -
02/02:30am 20.8 SE 5 7 1015.1 - 0.2 - - 10 - - - -
02/02:00am 21.1 SSE 4 5 1015.3 - 0.2 - Partly cloudy 10 - - - -
02/01:30am 20.8 SE 5 6 1015.3 - 0.2 - Partly cloudy 10 - - - -
02/01:00am 21.1 SSE 5 6 1015.5 - 0.2 - Partly cloudy 10 - - - -
02/12:30am 21.3 ESE 5 5 1015.6 - 0.2 - - 10 - - - -
02/12:00am 21.5 SE 5 6 1015.5 - 0.2 - Cloudy 10 - - - -
 
Date/Time
CST
Temp

°C
Wind Pressure Rain
since 9am
mm
Weather Cloud Vis
km
Sea
Height
m
Swell
Dir
 
Speed
knots
Gust
knots
hPa Trend Height
m
Period
s
Dir
01/11:30pm 21.7 ENE 4 5 1015.9 - 0.2 - Partly cloudy 10 - - - -
01/11:00pm 22.5 SE 6 8 1015.8 - 0.2 - Partly cloudy 10 - - - -
01/10:30pm 22.8 SE 7 9 1016.0 - 0.2 - - 10 - - - -
01/10:00pm 22.6 SE 6 8 1016.0 - 0.2 - Partly cloudy 10 - - - -
01/09:30pm 22.8 E 7 9 1015.8 - 0.2 - - 10 - - - -
01/09:00pm 22.9 ENE 7 9 1015.3 - 0.2 - - 10 - - - -
01/08:30pm 22.7 SE 5 7 1015.2 - 0.2 - Partly cloudy 10 - - - -
01/08:00pm 23.0 E 6 8 1014.9 - 0.2 - Partly cloudy 10 - - - -
01/07:30pm 23.4 SE 7 9 1014.4 - 0.2 - Partly cloudy 10 - - - -
01/07:00pm 23.5 SE 7 9 1014.1 - 0.2 - Partly cloudy 10 - - - -
01/06:30pm 24.0 ESE 7 9 1013.9 - 0.2 - Partly cloudy 10 - - - -
01/06:00pm 24.6 SE 11 16 1013.6 - 0.2 - Cloudy 10 - - - -
01/05:30pm 25.4 E 9 12 1013.7 - 0.2 - Mostly clear 10 - - - -
01/05:00pm 26.3 ESE 12 16 1013.6 - 0.2 - Partly cloudy 10 - - - -
01/04:30pm 26.6 ESE 13 18 1013.5 - 0.2 - Partly cloudy 10 - - - -
01/04:00pm 26.6 ESE 13 17 1013.4 - 0.2 - Partly cloudy 10 - - - -
01/03:30pm 27.6 ESE 12 17 1013.5 - 0.2 - Partly cloudy 10 - - - -
01/03:00pm 27.3 E 12 17 1013.3 F 0.2 Fine Partly cloudy 23 - - - -
01/02:30pm 27.1 ESE 12 17 1013.8 - 0.2 - Partly cloudy 10 - - - -
01/02:00pm 27.4 ESE 13 18 1014.1 - 0.2 - Partly cloudy 10 - - - -
01/01:30pm 27.3 ESE 14 19 1014.4 - 0.2 - Partly cloudy 10 - - - -
01/01:00pm 28.1 ESE 15 21 1014.8 - 0.2 - Mostly clear 10 - - - -
01/12:30pm 28.0 ESE 13 18 1015.2 - 0.2 - Mostly clear 10 - - - -
01/12:00pm 28.1 ESE 13 19 1015.5 R 0.2 Fine Mostly clear 23 - - - -
01/11:30am 28.3 E 13 21 1016.0 - 0.2 - Mostly clear 10 - - - -
01/11:00am 27.5 E 14 18 1016.4 - 0.2 - Mostly clear 10 - - - -
01/10:30am 27.6 ESE 17 21 1016.6 - 0.2 - Mostly clear 10 - - - -
01/10:00am 26.9 E 15 22 1016.6 - 0.0 - Mostly clear 10 - - - -
01/09:30am 26.6 E 13 18 1016.6 - 0.0 - Mostly clear 10 - - - -
01/09:00am 25.6 E 13 19 1016.2 R 1.0 Fine Mostly clear 21 - - - -
01/08:30am 24.4 E 7 10 1016.1 - 1.0 - Mostly clear 10 - - - -
01/08:00am 22.9 E 6 7 1015.6 - 1.0 - Partly cloudy 10 - - - -
01/07:30am 22.1 E 7 10 1015.3 - 1.0 - Mostly clear 10 - - - -
01/07:15am 21.0 NE 5 5 1015.2 - 0.2 Showers Partly cloudy 2 - - - -
01/07:00am 21.0 NNE 5 7 1014.9 - 0.0 - Mostly clear 10 - - - -
01/06:30am 20.4 S 4 5 1014.7 - 0.0 - Partly cloudy 10 - - - -
01/06:00am 20.0 NNE 4 5 1014.1 - 0.0 - Cloudy 10 - - - -
01/05:30am 19.9 NNE 5 6 1014.3 - 0.0 - - 10 - - - -
01/05:00am 19.6 N 5 6 1014.2 - 0.0 - Partly cloudy 10 - - - -
01/04:30am 18.4 CALM 0 0 1014.4 - 0.0 - Partly cloudy 10 - - - -
01/04:00am 18.4 N 2 3 1014.3 - 0.0 - - 10 - - - -
01/03:30am 18.3 SE 3 4 1014.2 - 0.0 - - 10 - - - -
01/03:00am 18.5 N 4 5 1013.9 - 0.0 - - 10 - - - -
01/02:30am 18.4 S 3 5 1014.4 - 0.0 - - 10 - - - -
01/02:00am 19.6 S 5 6 1014.7 - 0.0 - - 10 - - - -
01/01:30am 20.5 SSE 5 6 1015.1 - 0.0 - - 10 - - - -
01/01:00am 20.3 SE 5 6 1015.1 - 0.0 - - 10 - - - -
01/12:30am 20.9 SSE 5 5 1015.3 - 0.0 - - 10 - - - -
01/12:00am 21.0 ESE 5 7 1015.2 - 0.0 - Mostly clear 10 - - - -
 
Date/Time
CST
Temp

°C
Wind Pressure Rain
since 9am
mm
Weather Cloud Vis
km
Sea
Height
m
Swell
Dir
 
Speed
knots
Gust
knots
hPa Trend Height
m
Period
s
Dir
31/11:30pm 20.9 ENE 6 7 1015.4 - 0.0 - Partly cloudy 10 - - - -
31/11:00pm 20.2 SE 5 5 1015.6 - 0.0 - Partly cloudy 10 - - - -
31/10:30pm 20.5 NE 5 5 1015.6 - 0.0 - Partly cloudy 10 - - - -
31/10:00pm 20.7 N 4 5 1015.4 - 0.0 - Partly cloudy 10 - - - -
31/09:30pm 21.2 E 5 6 1015.1 - 0.0 - - 10 - - - -
31/09:00pm 21.0 SE 5 6 1014.7 - 0.0 - - 10 - - - -
31/08:30pm 21.5 E 4 5 1014.8 - 0.0 - - 10 - - - -
31/08:00pm 21.9 E 5 5 1014.6 - 0.0 - - 10 - - - -
31/07:30pm 22.6 NNE 5 6 1014.2 - 0.0 - Partly cloudy 10 - - - -
31/07:00pm 23.2 ENE 5 6 1013.7 - 0.0 - Partly cloudy 10 - - - -
31/06:30pm 24.1 ESE 7 9 1013.5 - 0.0 - - 10 - - - -
31/06:00pm 24.8 ESE 10 13 1013.0 - 0.0 - Partly cloudy 10 - - - -
31/05:30pm 25.7 E 11 15 1013.2 - 0.0 - Partly cloudy 10 - - - -
31/05:00pm 26.4 E 12 15 1013.2 - 0.0 - Mostly clear 10 - - - -
31/04:30pm 26.5 E 13 17 1013.1 - 0.0 - Partly cloudy 10 - - - -
31/04:00pm 26.9 E 11 15 1013.0 - 0.0 - Partly cloudy 10 - - - -
31/03:30pm 26.5 E 12 17 1013.0 - 0.0 - Partly cloudy 10 - - - -
31/03:00pm 26.6 E 13 17 1013.0 F 0.0 Distant precip. Mostly cloudy 17 - - - -
31/02:30pm 26.8 E 11 17 1013.6 - 0.0 - Partly cloudy 10 - - - -
31/02:00pm 27.4 E 11 15 1014.0 - 0.0 - Partly cloudy 10 - - - -
31/01:30pm 26.2 E 10 15 1014.3 - 0.0 - Partly cloudy 10 - - - -
31/01:00pm 26.9 E 12 17 1014.9 - 0.0 - Partly cloudy 10 - - - -
31/12:30pm 25.3 SE 10 13 1015.3 - 0.0 - Mostly clear 10 - - - -
31/12:00pm 27.2 E 12 16 1015.4 F 0.0 Distant precip. Mostly cloudy 20 - - - -
31/11:30am 26.7 E 15 19 1015.9 - 0.0 - Partly cloudy 10 - - - -
31/11:00am 27.0 E 11 16 1016.2 - 0.0 - Partly cloudy 10 - - - -
31/10:30am 27.0 E 13 19 1016.5 - 0.0 - Mostly clear 10 - - - -
31/10:00am 27.4 ESE 13 17 1016.6 - 0.0 - Mostly clear 10 - - - -
31/09:30am 26.4 E 12 15 1016.7 - 0.0 - Mostly clear 10 - - - -
31/09:00am 25.4 E 11 15 1016.5 F 0.0 Fine Mostly cloudy 24 - - - -
31/08:30am 24.3 E 10 13 1016.7 - 0.0 - Mostly clear 10 - - - -
31/08:00am 23.5 E 11 16 1016.6 - 0.0 - Mostly clear 10 - - - -
31/07:38am 23.3 E 15 19 1016.3 - 0.0 - Mostly clear 10 - - - -
31/07:30am 21.8 ESE 4 6 1016.2 - 0.0 - Mostly clear 10 - - - -
31/07:00am 21.6 SE 5 6 1015.9 - 0.0 - Mostly clear 10 - - - -
31/06:30am 21.7 E 5 6 1015.7 - 0.0 - Mostly clear 10 - - - -
31/06:00am 21.8 SE 5 7 1015.3 F 0.0 Fine Mostly clear 16 - - - -
31/05:30am 22.0 E 6 8 1015.4 - 0.0 - - 10 - - - -
31/05:00am 21.9 SSE 6 7 1015.3 - 0.0 - - 10 - - - -
31/04:30am 21.6 ESE 5 6 1015.5 - 0.0 - Partly cloudy 10 - - - -
31/04:00am 21.6 E 5 5 1015.6 - 0.0 - Partly cloudy 10 - - - -
31/03:30am 22.1 SSE 5 7 1015.6 - 0.0 - - 10 - - - -
31/03:00am 22.6 SE 6 8 1015.7 - 0.0 - - 10 - - - -
31/02:30am 22.9 SSE 6 8 1016.1 - 0.0 - Partly cloudy 10 - - - -
31/02:00am 23.2 SE 7 10 1016.4 - 0.0 - Partly cloudy 10 - - - -
31/01:30am 23.5 ESE 6 10 1016.6 - 0.0 - Partly cloudy 10 - - - -
31/01:00am 23.4 ESE 7 11 1016.7 - 0.0 - Partly cloudy 10 - - - -
31/12:30am 23.1 SE 6 8 1017.0 - 0.0 - Partly cloudy 10 - - - -
31/12:00am 23.1 E 6 8 1016.9 - 0.0 - Mostly cloudy 10 - - - -
 
Date/Time
CST
Temp

°C
Wind Pressure Rain
since 9am
mm
Weather Cloud Vis
km
Sea
Height
m
Swell
Dir
 
Speed
knots
Gust
knots
hPa Trend Height
m
Period
s
Dir
30/11:30pm 23.0 ESE 6 8 1017.1 - 0.0 - Partly cloudy 10 - - - -
30/11:00pm 23.6 E 7 10 1017.3 - 0.0 - Partly cloudy 10 - - - -
30/10:30pm 23.9 ESE 9 13 1017.3 - 0.0 - Partly cloudy 10 - - - -
30/10:00pm 23.9 ESE 9 15 1017.3 - 0.0 - Partly cloudy 10 - - - -
30/09:30pm 24.1 ESE 10 14 1017.3 - 0.0 - Partly cloudy 10 - - - -
30/09:00pm 23.8 E 9 11 1016.9 - 0.0 - Mostly clear 10 - - - -
30/08:30pm 23.8 ESE 9 12 1016.8 - 0.0 - - 10 - - - -

Other Formats:

Comma delimited format used in spreadsheet applications
http://www.bom.gov.au/fwo/IDD60701/IDD60701.94150.axf

JavaScript Object Notation format (JSON) in row-major order
http://www.bom.gov.au/fwo/IDD60701/IDD60701.94150.json